createdAt,value
2023-12-23T00:01:02.061Z,95720.13
2023-12-23T00:03:28.654Z,95708.41
2023-12-23T00:05:55.429Z,95709.53
2023-12-23T00:08:21.941Z,95725.09
2023-12-23T00:10:48.780Z,95721.56
2023-12-23T00:13:15.261Z,95725.09
2023-12-23T00:15:42.061Z,95724.63
2023-12-23T00:18:09.026Z,95732.81
2023-12-23T00:20:37.033Z,95735.53
2023-12-23T00:23:03.669Z,95735.88
2023-12-23T00:25:30.491Z,95735.88
2023-12-23T00:27:57.019Z,95733.16
2023-12-23T00:30:23.812Z,95733.50
2023-12-23T00:32:52.120Z,95733.94
2023-12-23T00:35:18.819Z,95762.00
2023-12-23T00:37:45.300Z,95752.69
2023-12-23T00:40:11.937Z,95753.47
2023-12-23T00:42:38.832Z,95764.38
2023-12-23T00:45:06.193Z,95758.13
2023-12-23T00:47:35.516Z,95759.28
2023-12-23T00:50:04.252Z,95748.72
2023-12-23T00:52:32.620Z,95765.41
2023-12-23T00:54:59.200Z,95747.13
2023-12-23T00:57:26.080Z,95747.91
2023-12-23T00:59:52.836Z,95747.44
2023-12-23T01:02:19.846Z,95745.66
2023-12-23T01:04:46.344Z,95762.00
2023-12-23T01:07:13.189Z,95758.94
2023-12-23T01:09:39.645Z,95760.88
2023-12-23T01:12:07.044Z,95789.91
2023-12-23T01:14:33.743Z,95784.47
2023-12-23T01:17:00.568Z,95806.59
2023-12-23T01:19:27.060Z,95807.41
2023-12-23T01:21:53.808Z,95812.34
2023-12-23T01:24:20.627Z,95815.75
2023-12-23T01:26:47.412Z,95823.94
2023-12-23T01:29:13.857Z,95841.75
2023-12-23T01:31:40.742Z,95848.31
2023-12-23T01:34:07.201Z,95835.84
2023-12-23T01:36:34.198Z,95849.47
2023-12-23T01:39:00.770Z,95856.34
2023-12-23T01:41:27.490Z,95860.19
2023-12-23T01:43:54.041Z,95871.09
2023-12-23T01:46:20.774Z,95880.06
2023-12-23T01:48:47.539Z,95895.16
2023-12-23T01:51:15.547Z,95895.16
2023-12-23T01:53:43.301Z,95883.00
2023-12-23T01:56:10.214Z,95891.97
2023-12-23T01:58:37.146Z,95906.25
2023-12-23T02:01:04.562Z,95899.66
2023-12-23T02:03:32.862Z,95914.41
2023-12-23T02:06:00.540Z,95905.13
2023-12-23T02:08:27.166Z,95915.50
2023-12-23T02:11:05.931Z,95932.19
2023-12-23T02:13:41.816Z,95940.84
2023-12-23T02:16:09.887Z,95917.44
2023-12-23T02:18:36.507Z,95919.38
2023-12-23T02:21:03.328Z,95904.63
2023-12-23T02:23:29.887Z,95917.78
2023-12-23T02:26:02.085Z,95920.50
2023-12-23T02:28:28.681Z,95924.03
2023-12-23T02:30:57.097Z,95940.69
2023-12-23T02:33:23.884Z,95932.84
2023-12-23T02:35:54.428Z,95930.47
2023-12-23T02:38:24.338Z,95934.31
2023-12-23T02:40:50.980Z,95945.22
2023-12-23T02:43:17.966Z,95942.81
2023-12-23T02:45:44.451Z,95958.03
2023-12-23T02:48:11.304Z,95951.00
2023-12-23T02:50:37.775Z,95955.63
2023-12-23T02:53:05.089Z,95958.34
2023-12-23T02:55:33.195Z,95974.69
2023-12-23T02:57:59.888Z,95972.44
2023-12-23T03:00:26.312Z,95977.91
2023-12-23T03:02:53.315Z,95972.78
2023-12-23T03:05:20.004Z,95975.81
2023-12-23T03:07:49.274Z,95985.59
2023-12-23T03:10:16.160Z,95969.56
2023-12-23T03:12:42.596Z,95980.44
2023-12-23T03:15:09.519Z,95982.38
2023-12-23T03:17:36.271Z,95978.06
2023-12-23T03:20:02.816Z,95971.34
2023-12-23T03:22:29.659Z,95974.53
2023-12-23T03:24:56.096Z,95967.03
2023-12-23T03:27:22.885Z,95956.94
2023-12-23T03:29:49.322Z,95970.06
2023-12-23T03:32:16.158Z,95965.75
2023-12-23T03:34:42.774Z,95974.72
2023-12-23T03:37:10.006Z,95975.06
2023-12-23T03:39:36.597Z,95950.22
2023-12-23T03:42:03.585Z,95960.31
2023-12-23T03:44:30.040Z,95987.53
2023-12-23T03:46:57.720Z,95981.31
2023-12-23T03:49:24.232Z,95979.66
2023-12-23T03:51:50.945Z,95984.31
2023-12-23T03:54:17.416Z,95988.16
2023-12-23T03:56:43.848Z,95993.94
2023-12-23T03:59:10.652Z,95977.13
2023-12-23T04:01:37.247Z,95984.50
2023-12-23T04:04:04.681Z,96007.41
2023-12-23T04:06:31.191Z,95983.25
2023-12-23T04:08:57.972Z,95982.75
2023-12-23T04:11:24.442Z,95996.34
2023-12-23T04:13:51.189Z,95984.66
2023-12-23T04:16:17.736Z,95985.00
2023-12-23T04:18:44.608Z,95990.13
2023-12-23T04:21:12.052Z,95991.25
2023-12-23T04:23:38.554Z,95978.75
2023-12-23T04:26:05.726Z,95976.03
2023-12-23T04:28:32.457Z,95995.56
2023-12-23T04:30:59.562Z,95983.06
2023-12-23T04:33:26.565Z,95985.78
2023-12-23T04:35:53.617Z,95983.88
2023-12-23T04:38:20.523Z,95970.25
2023-12-23T04:40:47.139Z,95971.38
2023-12-23T04:43:13.975Z,95984.66
2023-12-23T04:45:40.630Z,95982.28
2023-12-23T04:48:07.740Z,95976.03
2023-12-23T04:50:34.276Z,95980.69
2023-12-23T04:53:01.120Z,95978.28
2023-12-23T04:55:27.617Z,95973.97
2023-12-23T04:57:54.444Z,95977.47
2023-12-23T05:00:21.028Z,95966.91
2023-12-23T05:02:48.084Z,95964.19
2023-12-23T05:05:15.009Z,95979.72
2023-12-23T05:07:41.896Z,95976.22
2023-12-23T05:10:08.748Z,95985.97
2023-12-23T05:12:36.027Z,95977.00
2023-12-23T05:15:02.848Z,95966.91
2023-12-23T05:17:29.434Z,95966.44
2023-12-23T05:19:57.945Z,95971.06
2023-12-23T05:22:24.502Z,95979.22
2023-12-23T05:24:51.132Z,95976.22
2023-12-23T05:27:17.610Z,95978.94
2023-12-23T05:29:44.098Z,95980.88
2023-12-23T05:32:10.669Z,95980.06
2023-12-23T05:34:38.614Z,95969.19
2023-12-23T05:37:05.146Z,95971.06
2023-12-23T05:39:31.873Z,95978.13
2023-12-23T05:41:59.449Z,95972.69
2023-12-23T05:44:25.968Z,95955.88
2023-12-23T05:46:52.487Z,95949.28
2023-12-23T05:49:21.761Z,95969.47
2023-12-23T05:51:50.136Z,95966.28
2023-12-23T05:54:16.673Z,95964.69
2023-12-23T05:56:43.172Z,95960.03
2023-12-23T05:59:10.062Z,95958.44
2023-12-23T06:01:36.521Z,95950.28
2023-12-23T06:04:03.258Z,95956.38
2023-12-23T06:06:29.849Z,95951.25
2023-12-23T06:08:56.635Z,95959.44
2023-12-23T06:11:23.192Z,95951.25
2023-12-23T06:13:49.734Z,95949.34
2023-12-23T06:16:16.344Z,95937.66
2023-12-23T06:18:42.868Z,95943.09
2023-12-23T06:21:09.925Z,95958.63
2023-12-23T06:23:36.521Z,95929.50
2023-12-23T06:26:03.124Z,95928.19
2023-12-23T06:29:05.798Z,95937.16
2023-12-23T06:31:33.533Z,95932.84
2023-12-23T06:34:00.462Z,95927.06
2023-12-23T06:36:27.035Z,95939.06
2023-12-23T06:38:55.341Z,95932.50
2023-12-23T06:41:22.579Z,95933.31
2023-12-23T06:43:52.700Z,95951.09
2023-12-23T06:47:04.859Z,95934.28
2023-12-23T06:49:34.434Z,95914.75
2023-12-23T06:52:01.346Z,95933.47
2023-12-23T06:54:27.901Z,95927.22
2023-12-23T06:56:54.694Z,95922.59
2023-12-23T06:59:28.101Z,95917.16
2023-12-23T07:02:05.317Z,95928.03
2023-12-23T07:04:34.785Z,95934.94
2023-12-23T07:07:33.744Z,95919.41
2023-12-23T07:10:04.976Z,95928.69
2023-12-23T07:12:36.562Z,95925.63
2023-12-23T07:15:07.865Z,95937.66
2023-12-23T07:17:40.952Z,95940.50
2023-12-23T07:20:10.986Z,95917.59
2023-12-23T07:22:37.512Z,95934.28
2023-12-23T07:25:04.848Z,95940.84
2023-12-23T07:27:31.934Z,95938.13
2023-12-23T07:29:58.436Z,95953.00
2023-12-23T07:32:26.082Z,95953.78
2023-12-23T07:34:52.777Z,95938.25
2023-12-23T07:37:19.289Z,95939.53
2023-12-23T07:39:45.767Z,95923.69
2023-12-23T07:42:14.140Z,95926.72
2023-12-23T07:44:40.709Z,95944.97
2023-12-23T07:47:07.722Z,95937.31
2023-12-23T07:49:36.736Z,95936.97
2023-12-23T07:52:05.392Z,95945.59
2023-12-23T07:54:31.848Z,95944.47
2023-12-23T07:56:58.779Z,95944.47
2023-12-23T07:59:25.337Z,95956.50
2023-12-23T08:01:52.004Z,95948.66
2023-12-23T08:04:18.562Z,95955.69
2023-12-23T08:06:45.302Z,95944.81
2023-12-23T08:09:11.802Z,95951.38
2023-12-23T08:11:38.313Z,95966.91
2023-12-23T08:14:05.097Z,95969.00
2023-12-23T08:16:31.935Z,95956.19
2023-12-23T08:18:58.424Z,95956.63
2023-12-23T08:21:25.246Z,95963.69
2023-12-23T08:23:51.693Z,95958.75
2023-12-23T08:26:18.161Z,95968.50
2023-12-23T08:28:46.766Z,95968.63
2023-12-23T08:31:13.478Z,95967.84
2023-12-23T08:33:40.912Z,95990.91
2023-12-23T08:36:07.569Z,95962.06
2023-12-23T08:38:34.364Z,95958.72
2023-12-23T08:41:00.852Z,95957.88
2023-12-23T08:43:27.564Z,95958.06
2023-12-23T08:45:54.622Z,95952.28
2023-12-23T08:48:21.637Z,95967.03
2023-12-23T08:50:48.134Z,95967.81
2023-12-23T08:53:15.829Z,95960.44
2023-12-23T08:55:42.620Z,95957.41
2023-12-23T08:58:09.518Z,95961.72
2023-12-23T09:00:36.890Z,95963.81
2023-12-23T09:03:04.768Z,95968.13
2023-12-23T09:05:31.508Z,95972.44
2023-12-23T09:07:58.847Z,95957.69
2023-12-23T09:10:25.404Z,95960.09
2023-12-23T09:12:52.149Z,95976.91
2023-12-23T09:15:18.757Z,95973.38
2023-12-23T09:17:45.633Z,95953.97
2023-12-23T09:20:12.431Z,95968.72
2023-12-23T09:22:39.046Z,95977.22
2023-12-23T09:25:05.696Z,95931.72
2023-12-23T09:27:32.582Z,95962.47
2023-12-23T09:30:01.202Z,96000.28
2023-12-23T09:32:27.907Z,95974.50
2023-12-23T09:34:55.730Z,95977.22
2023-12-23T09:37:22.413Z,95978.81
2023-12-23T09:39:49.741Z,95986.53
2023-12-23T09:42:17.214Z,95984.94
2023-12-23T09:44:45.019Z,95987.66
2023-12-23T09:47:11.641Z,95990.84
2023-12-23T09:49:38.607Z,95993.09
2023-12-23T09:52:05.652Z,95975.63
2023-12-23T09:54:39.137Z,95980.44
2023-12-23T09:57:06.064Z,95981.38
2023-12-23T09:59:32.564Z,95973.69
2023-12-23T10:01:59.048Z,95981.53
2023-12-23T10:04:25.839Z,95983.91
2023-12-23T10:06:53.473Z,95970.63
2023-12-23T10:09:20.086Z,95982.31
2023-12-23T10:11:46.582Z,95994.03
2023-12-23T10:14:13.966Z,95973.22
2023-12-23T10:16:45.260Z,96000.25
2023-12-23T10:19:13.559Z,95960.53
2023-12-23T10:21:43.263Z,95969.81
2023-12-23T10:24:09.800Z,95973.69
2023-12-23T10:26:36.594Z,95955.75
2023-12-23T10:29:05.787Z,95972.09
2023-12-23T10:31:34.991Z,95974.47
2023-12-23T10:34:07.181Z,95981.38
2023-12-23T10:36:34.438Z,95975.44
2023-12-23T10:39:14.748Z,95978.16
2023-12-23T10:41:49.644Z,95988.75
2023-12-23T10:44:18.396Z,95987.47
2023-12-23T10:46:47.290Z,95961.81
2023-12-23T10:49:14.358Z,95994.03
2023-12-23T10:51:41.229Z,95978.34
2023-12-23T10:54:10.216Z,95992.44
2023-12-23T10:56:37.409Z,95986.06
2023-12-23T10:59:04.419Z,95986.41
2023-12-23T11:01:33.583Z,96006.88
2023-12-23T11:04:02.441Z,95996.19
2023-12-23T11:06:35.286Z,95995.72
2023-12-23T11:09:03.127Z,95985.44
2023-12-23T11:11:31.814Z,96005.31
2023-12-23T11:13:58.758Z,95996.34
2023-12-23T11:16:25.548Z,95997.47
2023-12-23T11:18:55.512Z,95991.22
2023-12-23T11:21:22.746Z,95986.09
2023-12-23T11:23:49.772Z,95998.13
2023-12-23T11:26:41.650Z,95982.59
2023-12-23T11:29:09.678Z,96009.00
2023-12-23T11:31:37.265Z,96016.72
2023-12-23T11:34:17.020Z,96039.63
2023-12-23T11:36:45.378Z,96036.91
2023-12-23T11:39:13.316Z,96043.94
2023-12-23T11:41:42.579Z,96059.47
2023-12-23T11:44:11.810Z,96050.19
2023-12-23T11:46:41.707Z,96044.75
2023-12-23T11:49:10.170Z,96038.81
2023-12-23T11:51:39.172Z,96026.81
2023-12-23T11:54:05.729Z,96026.81
2023-12-23T11:56:32.810Z,96025.69
2023-12-23T11:59:02.824Z,96020.06
2023-12-23T12:01:34.515Z,96028.72
2023-12-23T12:04:01.314Z,96025.22
2023-12-23T12:06:28.245Z,96023.28
2023-12-23T12:08:56.398Z,96018.63
2023-12-23T12:11:27.795Z,96020.56
2023-12-23T12:14:00.545Z,96016.72
2023-12-23T12:16:27.498Z,96030.31
2023-12-23T12:18:54.291Z,96033.38
2023-12-23T12:21:20.816Z,96025.22
2023-12-23T12:23:47.646Z,96031.44
2023-12-23T12:26:14.212Z,96020.56
2023-12-23T12:28:43.086Z,96043.13
2023-12-23T12:31:11.484Z,96024.09
2023-12-23T12:33:41.208Z,96010.13
2023-12-23T12:36:12.819Z,96006.28
2023-12-23T12:38:39.670Z,95999.72
2023-12-23T12:41:07.527Z,96014.28
2023-12-23T12:43:36.031Z,96016.38
2023-12-23T12:46:02.656Z,96023.56
2023-12-23T12:48:29.630Z,96008.47
2023-12-23T12:50:56.792Z,96015.56
2023-12-23T12:53:23.420Z,96023.72
2023-12-23T12:55:50.093Z,96002.41
2023-12-23T12:58:17.589Z,95999.03
2023-12-23T13:00:44.379Z,96003.00
2023-12-23T13:03:11.084Z,96001.59
2023-12-23T13:05:38.118Z,95998.88
2023-12-23T13:08:05.090Z,96003.50
2023-12-23T13:10:32.049Z,95997.72
2023-12-23T13:12:58.535Z,96014.88
2023-12-23T13:15:25.262Z,96007.97
2023-12-23T13:17:52.936Z,96025.59
2023-12-23T13:20:20.236Z,96050.91
2023-12-23T13:22:48.828Z,96019.81
2023-12-23T13:25:16.252Z,96025.09
2023-12-23T13:27:42.714Z,96022.84
2023-12-23T13:30:10.160Z,96031.00
2023-12-23T13:32:36.904Z,96051.22
2023-12-23T13:35:04.087Z,96042.41
2023-12-23T13:37:30.652Z,96063.72
2023-12-23T13:39:57.107Z,96078.81
2023-12-23T13:42:23.740Z,96071.28
2023-12-23T13:44:50.535Z,96074.00
2023-12-23T13:47:17.129Z,96060.72
2023-12-23T13:49:44.557Z,96063.13
2023-12-23T13:52:11.243Z,96048.69
2023-12-23T13:54:37.692Z,96063.13
2023-12-23T13:57:04.753Z,96063.13
2023-12-23T13:59:31.839Z,96058.47
2023-12-23T14:01:58.679Z,96039.72
2023-12-23T14:04:25.120Z,96050.63
2023-12-23T14:06:51.920Z,96053.00
2023-12-23T14:09:18.551Z,96037.47
2023-12-23T14:11:45.485Z,96045.31
2023-12-23T14:14:12.027Z,96033.28
2023-12-23T14:16:38.909Z,96038.88
2023-12-23T14:19:05.429Z,96035.53
2023-12-23T14:21:33.034Z,96050.75
2023-12-23T14:23:59.700Z,96044.03
2023-12-23T14:26:28.988Z,96035.06
2023-12-23T14:28:58.522Z,96052.03
2023-12-23T14:31:25.692Z,96071.75
2023-12-23T14:33:55.371Z,96070.16
2023-12-23T14:36:22.241Z,96090.34
2023-12-23T14:38:48.821Z,96070.31
2023-12-23T14:41:15.800Z,96070.97
2023-12-23T14:43:42.249Z,96074.03
2023-12-23T14:46:10.362Z,96084.44
2023-12-23T14:48:36.953Z,96103.81
2023-12-23T14:51:04.049Z,96092.13
2023-12-23T14:53:30.703Z,96097.09
2023-12-23T14:55:57.671Z,96085.72
2023-12-23T14:58:24.147Z,96103.19
2023-12-23T15:00:50.678Z,96096.47
2023-12-23T15:03:17.549Z,96089.09
2023-12-23T15:05:44.198Z,96090.84
2023-12-23T15:08:11.295Z,96111.03
2023-12-23T15:10:37.735Z,96124.19
2023-12-23T15:13:05.949Z,96138.13
2023-12-23T15:15:33.521Z,96136.53
2023-12-23T15:18:00.619Z,96138.44
2023-12-23T15:20:27.188Z,96138.75
2023-12-23T15:22:54.260Z,96140.19
2023-12-23T15:25:20.954Z,96144.84
2023-12-23T15:27:47.553Z,96156.84
2023-12-23T15:30:14.666Z,96154.44
2023-12-23T15:32:41.832Z,96154.78
2023-12-23T15:35:08.858Z,96171.09
2023-12-23T15:37:35.619Z,96176.56
2023-12-23T15:40:02.091Z,96183.59
2023-12-23T15:42:28.737Z,96181.53
2023-12-23T15:44:55.530Z,96181.81
2023-12-23T15:47:22.206Z,96179.41
2023-12-23T15:49:48.753Z,96180.06
2023-12-23T15:52:15.591Z,96199.91
2023-12-23T15:54:42.166Z,96192.53
2023-12-23T15:57:08.996Z,96206.16
2023-12-23T15:59:35.660Z,96212.41
2023-12-23T16:02:04.247Z,96216.25
2023-12-23T16:04:31.346Z,96220.09
2023-12-23T16:06:57.817Z,96230.50
2023-12-23T16:09:24.632Z,96214.97
2023-12-23T16:11:51.316Z,96211.78
2023-12-23T16:14:18.174Z,96216.72
2023-12-23T16:16:44.625Z,96225.66
2023-12-23T16:19:15.463Z,96211.59
2023-12-23T16:21:41.947Z,96215.09
2023-12-23T16:24:08.671Z,96215.44
2023-12-23T16:26:35.255Z,96218.16
2023-12-23T16:29:02.101Z,96202.94
2023-12-23T16:31:28.631Z,96215.44
2023-12-23T16:33:55.608Z,96217.34
2023-12-23T16:36:22.189Z,96242.66
2023-12-23T16:38:49.008Z,96245.03
2023-12-23T16:41:15.579Z,96232.22
2023-12-23T16:43:42.449Z,96241.84
2023-12-23T16:46:10.026Z,96245.03
2023-12-23T16:48:36.614Z,96233.34
2023-12-23T16:51:03.332Z,96246.97
2023-12-23T16:53:30.820Z,96256.25
2023-12-23T16:55:57.400Z,96264.41
2023-12-23T16:58:24.542Z,96252.72
2023-12-23T17:00:51.051Z,96246.66
2023-12-23T17:03:18.309Z,96265.69
2023-12-23T17:05:45.663Z,96273.06
2023-12-23T17:08:12.467Z,96268.75
2023-12-23T17:10:39.362Z,96272.25
2023-12-23T17:13:05.944Z,96272.25
2023-12-23T17:15:32.729Z,96282.22
2023-12-23T17:18:00.806Z,96286.34
2023-12-23T17:20:27.701Z,96269.72
2023-12-23T17:22:55.767Z,96283.94
2023-12-23T17:25:23.050Z,96285.06
2023-12-23T17:27:52.261Z,96289.06
2023-12-23T17:30:18.926Z,96282.66
2023-12-23T17:32:45.658Z,96277.72
2023-12-23T17:35:12.319Z,96284.28
2023-12-23T17:37:38.774Z,96275.63
2023-12-23T17:40:06.329Z,96285.53
2023-12-23T17:42:32.767Z,96289.06
2023-12-23T17:44:59.850Z,96275.47
2023-12-23T17:47:26.686Z,96274.63
2023-12-23T17:49:53.680Z,96274.94
2023-12-23T17:52:21.084Z,96279.00
2023-12-23T17:54:48.929Z,96276.88
2023-12-23T17:57:16.473Z,96293.53
2023-12-23T17:59:43.674Z,96292.09
2023-12-23T18:02:10.555Z,96288.06
2023-12-23T18:04:37.399Z,96287.28
2023-12-23T18:07:04.152Z,96296.56
2023-12-23T18:09:31.535Z,96295.44
2023-12-23T18:11:57.987Z,96296.25
2023-12-23T18:14:28.242Z,96285.69
2023-12-23T18:16:55.282Z,96295.91
2023-12-23T18:19:22.210Z,96302.00
2023-12-23T18:21:48.734Z,96303.44
2023-12-23T18:24:15.214Z,96305.84
2023-12-23T18:26:42.929Z,96319.44
2023-12-23T18:29:09.450Z,96314.00
2023-12-23T18:31:36.230Z,96297.38
2023-12-23T18:34:02.894Z,96305.84
2023-12-23T18:36:29.438Z,96298.00
2023-12-23T18:38:56.809Z,96298.78
2023-12-23T18:41:23.722Z,96301.19
2023-12-23T18:43:50.241Z,96306.66
2023-12-23T18:46:16.991Z,96302.16
2023-12-23T18:48:44.380Z,96308.41
2023-12-23T18:51:11.514Z,96304.88
2023-12-23T18:53:38.051Z,96295.00
2023-12-23T18:56:04.785Z,96305.56
2023-12-23T18:58:31.216Z,96302.38
2023-12-23T19:00:58.708Z,96305.56
2023-12-23T19:03:25.191Z,96306.69
2023-12-23T19:05:52.093Z,96306.19
2023-12-23T19:08:19.140Z,96309.09
2023-12-23T19:10:47.286Z,96314.22
2023-12-23T19:13:13.844Z,96302.84
2023-12-23T19:15:40.720Z,96318.72
2023-12-23T19:18:07.368Z,96336.47
2023-12-23T19:20:34.553Z,96321.25
2023-12-23T19:23:04.603Z,96341.75
2023-12-23T19:25:31.507Z,96331.38
2023-12-23T19:27:58.664Z,96326.75
2023-12-23T19:30:25.246Z,96341.31
2023-12-23T19:32:53.172Z,96328.66
2023-12-23T19:35:19.942Z,96330.09
2023-12-23T19:37:46.591Z,96328.03
2023-12-23T19:40:13.266Z,96333.00
2023-12-23T19:42:39.714Z,96324.81
2023-12-23T19:45:06.958Z,96325.94
2023-12-23T19:47:34.788Z,96330.75
2023-12-23T19:50:01.516Z,96340.50
2023-12-23T19:52:28.069Z,96339.09
2023-12-23T19:54:54.746Z,96316.53
2023-12-23T19:57:21.448Z,96326.63
2023-12-23T19:59:48.005Z,96331.88
2023-12-23T20:02:14.545Z,96324.69
2023-12-23T20:04:41.008Z,96322.25
2023-12-23T20:07:10.923Z,96308.00
2023-12-23T20:09:40.425Z,96305.75
2023-12-23T20:12:08.103Z,96314.09
2023-12-23T20:14:35.899Z,96311.56
2023-12-23T20:17:03.077Z,96318.94
2023-12-23T20:19:29.669Z,96330.44
2023-12-23T20:21:56.233Z,96331.09
2023-12-23T20:24:23.439Z,96329.34
2023-12-23T20:26:51.073Z,96314.41
2023-12-23T20:29:17.777Z,96319.06
2023-12-23T20:31:44.719Z,96311.69
2023-12-23T20:34:11.606Z,96316.66
2023-12-23T20:36:42.719Z,96318.72
2023-12-23T20:39:09.506Z,96322.41
2023-12-23T20:41:38.917Z,96332.19
2023-12-23T20:44:08.059Z,96321.78
2023-12-23T20:46:34.582Z,96326.09
2023-12-23T20:49:01.498Z,96328.50
2023-12-23T20:51:28.095Z,96316.94
2023-12-23T20:53:54.900Z,96311.00
2023-12-23T20:56:25.960Z,96323.50
2023-12-23T20:58:56.331Z,96316.44
2023-12-23T21:01:26.203Z,96323.50
2023-12-23T21:03:55.107Z,96341.59
2023-12-23T21:06:22.438Z,96323.13
2023-12-23T21:08:49.587Z,96331.78
2023-12-23T21:11:17.358Z,96338.06
2023-12-23T21:13:44.906Z,96326.19
2023-12-23T21:16:12.818Z,96340.09
2023-12-23T21:18:44.087Z,96337.22
2023-12-23T21:21:12.051Z,96327.63
2023-12-23T21:23:38.579Z,96319.78
2023-12-23T21:26:05.155Z,96319.63
2023-12-23T21:28:32.017Z,96336.25
2023-12-23T21:30:58.568Z,96347.03
2023-12-23T21:33:25.401Z,96336.44
2023-12-23T21:35:52.351Z,96338.34
2023-12-23T21:38:21.583Z,96327.47
2023-12-23T21:40:49.154Z,96327.47
2023-12-23T21:43:15.830Z,96343.19
2023-12-23T21:45:42.927Z,96345.28
2023-12-23T21:48:09.893Z,96322.53
2023-12-23T21:50:36.739Z,96350.91
2023-12-23T21:53:05.020Z,96347.41
2023-12-23T21:55:31.840Z,96340.50
2023-12-23T21:57:58.302Z,96357.16
2023-12-23T22:00:25.099Z,96350.00
2023-12-23T22:02:51.969Z,96357.03
2023-12-23T22:05:19.096Z,96367.75
2023-12-23T22:07:45.587Z,96342.16
2023-12-23T22:10:14.408Z,96351.41
2023-12-23T22:12:41.044Z,96348.69
2023-12-23T22:15:08.292Z,96353.03
2023-12-23T22:17:35.094Z,96328.22
2023-12-23T22:20:03.311Z,96332.66
2023-12-23T22:22:30.154Z,96335.88
2023-12-23T22:24:59.652Z,96349.31
2023-12-23T22:27:26.149Z,96353.66
2023-12-23T22:29:53.356Z,96340.84
2023-12-23T22:32:19.834Z,96339.72
2023-12-23T22:34:46.578Z,96336.06
2023-12-23T22:37:13.113Z,96336.69
2023-12-23T22:39:39.634Z,96327.41
2023-12-23T22:42:06.339Z,96332.06
2023-12-23T22:44:32.878Z,96326.28
2023-12-23T22:46:59.674Z,96345.84
2023-12-23T22:49:26.272Z,96337.03
2023-12-23T22:51:53.083Z,96344.88
2023-12-23T22:54:19.609Z,96345.50
2023-12-23T22:56:46.426Z,96333.03
2023-12-23T22:59:12.911Z,96339.91
2023-12-23T23:01:39.649Z,96325.50
2023-12-23T23:04:06.184Z,96338.31
2023-12-23T23:06:33.285Z,96340.50
2023-12-23T23:08:59.757Z,96347.59
2023-12-23T23:11:26.335Z,96333.66
2023-12-23T23:13:52.866Z,96333.81
2023-12-23T23:16:20.990Z,96340.22
2023-12-23T23:18:47.676Z,96337.22
2023-12-23T23:21:14.854Z,96327.44
2023-12-23T23:23:42.606Z,96333.69
2023-12-23T23:26:09.491Z,96338.34
2023-12-23T23:28:35.979Z,96335.81
2023-12-23T23:31:02.755Z,96346.22
2023-12-23T23:33:29.286Z,96351.16
2023-12-23T23:35:56.183Z,96347.03
2023-12-23T23:38:22.697Z,96351.34
2023-12-23T23:40:52.065Z,96350.06
2023-12-23T23:43:19.379Z,96349.09
2023-12-23T23:45:46.225Z,96341.88
2023-12-23T23:48:13.795Z,96369.94
2023-12-23T23:50:40.759Z,96348.16
2023-12-23T23:53:07.261Z,96347.19
2023-12-23T23:55:33.773Z,96335.81
2023-12-23T23:58:00.524Z,96332.28
